Time;durP1;ratioP1;P1;durP2;ratioP2;P2;SDS_P1;SDS_P2;PMS_P1;PMS_P2;Temp;Humidity;BMP_temperature;BMP_pressure;BME280_temperature;BME280_humidity;BME280_pressure;Samples;Min_cycle;Max_cycle;Signal;HPM_P1;HPM_P2
2024/01/04 00:02:05;;;;;;;18.73;9.07;;;;;;;7.48;100.00;98895.72;1461877;88;21338;-79
2024/01/04 00:04:31;;;;;;;17.67;8.33;;;;;;;7.49;100.00;98888.14;1460925;88;21346;-79
2024/01/04 00:06:57;;;;;;;15.40;8.77;;;;;;;7.51;100.00;98889.27;1478040;88;21539;-80
2024/01/04 00:09:24;;;;;;;16.63;6.97;;;;;;;7.51;100.00;98889.27;1466993;87;21483;-80
2024/01/04 00:11:50;;;;;;;12.57;6.83;;;;;;;7.53;100.00;98896.52;1476885;88;21375;-79
2024/01/04 00:14:16;;;;;;;14.63;7.97;;;;;;;7.55;100.00;98884.02;1471623;88;21316;-80
2024/01/04 00:16:42;;;;;;;12.03;6.17;;;;;;;7.54;100.00;98871.36;1470021;88;21309;-80
2024/01/04 00:19:08;;;;;;;21.23;8.57;;;;;;;7.55;100.00;98869.54;1467315;88;21326;-80
2024/01/04 00:21:34;;;;;;;18.80;7.77;;;;;;;7.55;100.00;98880.07;1461616;88;22358;-80
2024/01/04 00:24:01;;;;;;;19.47;9.30;;;;;;;7.54;100.00;98871.36;1476412;88;21353;-80
2024/01/04 00:26:27;;;;;;;14.70;6.40;;;;;;;7.54;100.00;98852.93;1465217;88;21449;-80
2024/01/04 00:28:53;;;;;;;23.87;8.70;;;;;;;7.54;100.00;98858.66;1471841;87;21339;-79
2024/01/04 00:31:19;;;;;;;18.00;7.37;;;;;;;7.54;100.00;98873.98;1470231;88;21475;-77
2024/01/04 00:33:45;;;;;;;15.40;7.70;;;;;;;7.56;100.00;98859.33;1470343;88;21360;-77
2024/01/04 00:36:13;;;;;;;14.70;7.20;;;;;;;7.56;100.00;98882.52;1446423;88;22226;-77
2024/01/04 00:38:39;;;;;;;13.63;6.93;;;;;;;7.59;100.00;98846.64;1479088;87;21317;-78
2024/01/04 00:41:05;;;;;;;14.93;6.20;;;;;;;7.60;100.00;98844.86;1470876;87;21383;-77
2024/01/04 00:43:31;;;;;;;11.50;5.93;;;;;;;7.59;100.00;98838.75;1477218;88;21456;-77
2024/01/04 00:45:59;;;;;;;15.83;5.23;;;;;;;7.60;100.00;98846.98;1467890;88;21383;-77
2024/01/04 00:48:25;;;;;;;17.03;5.93;;;;;;;7.62;100.00;98849.44;1479715;87;21449;-78
2024/01/04 00:50:51;;;;;;;10.27;5.97;;;;;;;7.62;100.00;98847.66;1473486;88;21377;-78
2024/01/04 00:53:17;;;;;;;12.53;5.57;;;;;;;7.61;100.00;98839.91;1467229;88;21910;-78
2024/01/04 00:55:43;;;;;;;12.07;6.43;;;;;;;7.61;100.00;98843.36;1471935;87;21368;-76
2024/01/04 00:58:11;;;;;;;12.30;6.37;;;;;;;7.61;100.00;98847.81;1478942;88;21633;-78
2024/01/04 01:00:37;;;;;;;8.87;5.50;;;;;;;7.59;100.00;98841.38;1465141;87;22321;-77
2024/01/04 01:03:04;;;;;;;8.63;5.93;;;;;;;7.59;100.00;98842.69;1467473;87;21383;-77
2024/01/04 01:05:30;;;;;;;10.37;5.47;;;;;;;7.59;100.00;98840.06;1465724;87;21442;-77
2024/01/04 01:07:56;;;;;;;10.50;5.27;;;;;;;7.57;100.00;98831.53;1471795;88;21383;-77
2024/01/04 01:10:22;;;;;;;11.10;5.17;;;;;;;7.59;100.00;98828.72;1472550;87;21383;-77
2024/01/04 01:12:48;;;;;;;9.37;5.13;;;;;;;7.58;100.00;98821.81;1475943;87;21560;-77
2024/01/04 01:15:15;;;;;;;10.43;5.53;;;;;;;7.59;100.00;98824.77;1476335;88;21375;-77
2024/01/04 01:17:41;;;;;;;9.60;5.00;;;;;;;7.59;100.00;98828.22;1470290;88;21509;-78
2024/01/04 01:20:09;;;;;;;14.20;6.07;;;;;;;7.59;100.00;98815.05;1474208;87;21368;-77
2024/01/04 01:22:35;;;;;;;13.03;5.70;;;;;;;7.59;100.00;98808.97;1475559;87;21580;-78
2024/01/04 01:25:01;;;;;;;16.57;6.80;;;;;;;7.58;100.00;98808.65;1470381;87;21309;-77
2024/01/04 01:27:28;;;;;;;9.20;5.57;;;;;;;7.56;100.00;98807.98;1473795;88;22932;-77
2024/01/04 01:29:53;;;;;;;16.50;6.80;;;;;;;7.54;100.00;98804.22;1475446;88;21411;-77
2024/01/04 01:32:20;;;;;;;9.43;5.83;;;;;;;7.52;100.00;98811.95;1472055;87;21346;-77
2024/01/04 01:34:46;;;;;;;9.83;5.80;;;;;;;7.50;100.00;98819.19;1473656;88;21389;-78
2024/01/04 01:37:12;;;;;;;8.17;5.10;;;;;;;7.45;100.00;98817.05;1472260;87;21441;-77
2024/01/04 01:39:39;;;;;;;11.70;5.83;;;;;;;7.44;100.00;98826.76;1461879;88;21554;-76
2024/01/04 01:42:05;;;;;;;12.60;6.00;;;;;;;7.42;100.00;98834.49;1471759;88;21914;-78
2024/01/04 01:44:32;;;;;;;16.80;7.60;;;;;;;7.39;100.00;98822.52;1464730;88;21507;-78
2024/01/04 01:46:58;;;;;;;13.93;6.33;;;;;;;7.37;100.00;98821.84;1472380;88;21465;-76
2024/01/04 01:49:24;;;;;;;11.10;7.40;;;;;;;7.37;100.00;98822.34;1469156;87;21398;-77
2024/01/04 01:51:51;;;;;;;17.20;6.57;;;;;;;7.32;100.00;98828.59;1474172;87;21397;-79
2024/01/04 01:54:17;;;;;;;12.60;7.30;;;;;;;7.30;100.00;98818.72;1475096;87;21516;-77
2024/01/04 01:56:44;;;;;;;11.47;7.33;;;;;;;7.26;100.00;98827.45;1464471;88;21354;-78
2024/01/04 01:59:10;;;;;;;14.57;7.87;;;;;;;7.26;100.00;98836.66;1466445;88;21353;-78
2024/01/04 02:01:37;;;;;;;15.37;7.97;;;;;;;7.23;100.00;98835.17;1478275;87;21515;-77
2024/01/04 02:04:04;;;;;;;14.63;7.63;;;;;;;7.21;100.00;98842.41;1472460;88;22269;-79
2024/01/04 02:06:30;;;;;;;15.80;6.93;;;;;;;7.18;100.00;98830.89;1465170;87;21456;-77
2024/01/04 02:08:56;;;;;;;12.43;6.27;;;;;;;7.14;100.00;98833.53;1468790;88;22401;-77
2024/01/04 02:11:22;;;;;;;11.43;6.50;;;;;;;7.10;100.00;98826.94;1468961;88;21346;-77
2024/01/04 02:13:49;;;;;;;14.77;6.60;;;;;;;7.06;100.00;98821.69;1466760;87;21435;-79
2024/01/04 02:16:16;;;;;;;29.10;9.97;;;;;;;7.02;100.00;98813.81;1470190;87;21641;-78
2024/01/04 02:18:42;;;;;;;13.43;8.20;;;;;;;6.98;100.00;98814.61;1457766;88;21503;-77
2024/01/04 02:21:09;;;;;;;14.20;7.00;;;;;;;6.96;100.00;98830.22;1469579;87;21791;-77
2024/01/04 02:23:35;;;;;;;12.83;7.83;;;;;;;6.94;100.00;98832.22;1477256;87;22291;-78
2024/01/04 02:26:01;;;;;;;12.50;7.27;;;;;;;6.91;100.00;98828.59;1469947;88;21403;-78
2024/01/04 02:28:28;;;;;;;15.33;9.13;;;;;;;6.88;100.00;98827.61;1471296;88;21353;-77
2024/01/04 02:30:54;;;;;;;13.80;7.30;;;;;;;6.85;100.00;98839.74;1468706;88;21456;-78
2024/01/04 02:33:20;;;;;;;14.13;8.00;;;;;;;6.82;100.00;98815.08;1473290;87;22233;-79
2024/01/04 02:35:46;;;;;;;20.17;8.70;;;;;;;6.80;100.00;98810.50;1466958;88;21360;-79
2024/01/04 02:38:12;;;;;;;15.33;8.67;;;;;;;6.78;100.00;98814.09;1478560;87;21552;-79
2024/01/04 02:40:39;;;;;;;17.17;10.13;;;;;;;6.77;100.00;98815.59;1474687;87;22219;-79
2024/01/04 02:43:09;;;;;;;19.50;9.73;;;;;;;6.76;100.00;98796.37;1470996;87;21383;-79
2024/01/04 02:45:33;;;;;;;18.63;9.13;;;;;;;6.72;100.00;98791.09;1468352;88;21976;-78
2024/01/04 02:47:59;;;;;;;15.00;7.70;;;;;;;6.72;100.00;98788.95;1475837;87;21294;-78
2024/01/04 02:50:25;;;;;;;15.83;8.17;;;;;;;6.72;100.00;98797.66;1468151;88;22307;-78
2024/01/04 02:52:51;;;;;;;13.63;7.60;;;;;;;6.72;100.00;98795.03;1462791;88;21523;-79
2024/01/04 02:55:17;;;;;;;14.10;7.57;;;;;;;6.72;100.00;98788.46;1468886;87;21361;-78
2024/01/04 02:57:43;;;;;;;13.30;7.33;;;;;;;6.74;100.00;98794.88;1471776;88;22343;-77
2024/01/04 03:00:11;;;;;;;14.87;7.70;;;;;;;6.75;100.00;98800.46;1472699;87;21353;-78
2024/01/04 03:02:38;;;;;;;15.50;8.27;;;;;;;6.76;100.00;98785.85;1471242;87;21548;-78
2024/01/04 03:05:06;;;;;;;13.60;7.00;;;;;;;6.77;100.00;98784.86;1471021;87;22367;-78
2024/01/04 03:07:32;;;;;;;13.93;8.07;;;;;;;6.78;100.00;98790.43;1478285;87;21434;-78
2024/01/04 03:09:58;;;;;;;15.03;7.63;;;;;;;6.82;100.00;98784.38;1474176;88;21382;-77
2024/01/04 03:12:24;;;;;;;12.40;6.67;;;;;;;6.84;100.00;98792.09;1471901;88;23038;-75
2024/01/04 03:14:51;;;;;;;15.63;8.70;;;;;;;6.87;100.00;98795.70;1469643;87;21512;-77
2024/01/04 03:17:17;;;;;;;21.27;9.50;;;;;;;6.89;100.00;98805.58;1462239;88;21641;-77
2024/01/04 03:19:43;;;;;;;14.37;7.67;;;;;;;6.91;100.00;98807.56;1465469;88;21368;-77
2024/01/04 03:22:09;;;;;;;14.40;8.80;;;;;;;6.91;100.00;98819.39;1479383;87;22418;-77
2024/01/04 03:24:35;;;;;;;21.83;8.87;;;;;;;6.93;100.00;98830.55;1468523;88;21418;-78
2024/01/04 03:27:02;;;;;;;13.10;7.93;;;;;;;6.95;100.00;98823.33;1470222;88;21575;-78
2024/01/04 03:29:28;;;;;;;15.40;7.90;;;;;;;6.96;100.00;98823.18;1478178;87;21390;-80
2024/01/04 03:31:54;;;;;;;8.57;6.93;;;;;;;6.95;100.00;98819.38;1471414;88;21353;-78
2024/01/04 03:34:20;;;;;;;11.67;6.73;;;;;;;6.97;100.00;98809.53;1472562;88;21338;-78
2024/01/04 03:36:46;;;;;;;12.63;6.63;;;;;;;6.99;100.00;98808.38;1471916;88;22263;-78
2024/01/04 03:39:12;;;;;;;10.73;6.70;;;;;;;7.01;100.00;98812.14;1468522;88;21487;-78
2024/01/04 03:41:38;;;;;;;14.13;7.13;;;;;;;7.04;100.00;98807.05;1464365;88;21442;-79
2024/01/04 03:44:05;;;;;;;14.77;9.60;;;;;;;7.04;100.00;98803.92;1473022;87;22417;-78
2024/01/04 03:46:31;;;;;;;15.53;8.30;;;;;;;7.07;100.00;98814.62;1471987;87;21368;-78
2024/01/04 03:48:57;;;;;;;18.53;9.63;;;;;;;7.07;100.00;98811.98;1471810;87;21664;-78
2024/01/04 03:51:23;;;;;;;16.00;8.47;;;;;;;7.07;100.00;98804.09;1475994;88;21355;-78
2024/01/04 03:53:50;;;;;;;13.03;7.83;;;;;;;7.08;100.00;98806.58;1469709;88;21360;-79
2024/01/04 03:56:16;;;;;;;11.27;6.50;;;;;;;7.07;100.00;98797.52;1471022;87;22391;-78
2024/01/04 03:58:42;;;;;;;10.47;6.23;;;;;;;7.07;100.00;98772.03;1466630;87;21419;-77
2024/01/04 04:01:08;;;;;;;17.27;7.00;;;;;;;7.05;100.00;98766.13;1473832;87;22872;-77
2024/01/04 04:03:34;;;;;;;11.73;6.93;;;;;;;7.06;100.00;98774.84;1474935;88;21419;-77
2024/01/04 04:06:06;;;;;;;14.77;7.57;;;;;;;7.06;100.00;98799.83;1475033;87;21845;-77
2024/01/04 04:08:32;;;;;;;11.63;6.97;;;;;;;7.06;100.00;98813.80;1477088;87;21382;-77
2024/01/04 04:10:58;;;;;;;13.83;6.37;;;;;;;7.02;100.00;98816.44;1476253;87;22188;-76
2024/01/04 04:13:25;;;;;;;11.37;6.77;;;;;;;6.99;100.00;98816.27;1474781;87;21525;-77
2024/01/04 04:15:51;;;;;;;11.30;5.93;;;;;;;6.96;100.00;98821.02;1470639;88;21957;-76
2024/01/04 04:18:18;;;;;;;11.63;7.17;;;;;;;6.92;100.00;98819.71;1475764;87;21516;-77
2024/01/04 04:20:44;;;;;;;12.20;7.03;;;;;;;6.92;100.00;98815.77;1474868;87;21412;-77
2024/01/04 04:23:10;;;;;;;11.80;7.37;;;;;;;6.91;100.00;98818.08;1469805;87;21382;-76
2024/01/04 04:25:36;;;;;;;11.60;7.33;;;;;;;6.88;100.00;98817.09;1480037;87;21574;-77
2024/01/04 04:28:03;;;;;;;11.80;7.50;;;;;;;6.85;100.00;98822.18;1466124;87;21286;-77
2024/01/04 04:30:29;;;;;;;13.93;8.13;;;;;;;6.85;100.00;98816.92;1472375;87;21383;-78
2024/01/04 04:32:57;;;;;;;11.70;7.33;;;;;;;6.83;100.00;98815.44;1475690;87;21383;-76
2024/01/04 04:35:23;;;;;;;17.47;7.00;;;;;;;6.83;100.00;98811.49;1477785;87;21434;-77
2024/01/04 04:37:50;;;;;;;13.53;7.10;;;;;;;6.81;100.00;98804.25;1469786;87;21442;-76
2024/01/04 04:40:18;;;;;;;10.53;6.73;;;;;;;6.82;100.00;98804.56;1482255;87;22476;-76
2024/01/04 04:42:44;;;;;;;17.17;8.33;;;;;;;6.77;100.00;98801.95;1471254;87;21412;-78
2024/01/04 04:45:10;;;;;;;16.00;8.07;;;;;;;6.78;100.00;98795.69;1471077;88;21338;-78
2024/01/04 04:47:36;;;;;;;12.30;7.47;;;;;;;6.76;100.00;98793.73;1475845;87;22307;-77
2024/01/04 04:50:04;;;;;;;12.87;6.73;;;;;;;6.75;100.00;98786.81;1474897;88;21618;-77
2024/01/04 04:52:30;;;;;;;17.80;8.80;;;;;;;6.73;100.00;98784.02;1477048;87;21441;-77
2024/01/04 04:54:57;;;;;;;18.00;8.60;;;;;;;6.72;100.00;98791.09;1448036;88;22411;-77
2024/01/04 04:57:23;;;;;;;12.03;7.00;;;;;;;6.72;100.00;98790.27;1467254;88;22409;-77
2024/01/04 04:59:49;;;;;;;14.20;7.80;;;;;;;6.69;100.00;98791.91;1469780;88;21491;-76
2024/01/04 05:02:15;;;;;;;14.97;7.13;;;;;;;6.69;100.00;98803.74;1474256;87;21360;-77
2024/01/04 05:04:43;;;;;;;12.73;7.23;;;;;;;6.66;100.00;98791.74;1474943;87;21463;-77
2024/01/04 05:07:09;;;;;;;13.07;7.87;;;;;;;6.63;100.00;98796.02;1478880;87;22381;-78
2024/01/04 05:09:36;;;;;;;15.23;9.10;;;;;;;6.63;100.00;98798.64;1468561;88;21999;-77
2024/01/04 05:12:02;;;;;;;13.83;7.60;;;;;;;6.61;100.00;98804.55;1467919;88;21338;-79
2024/01/04 05:14:28;;;;;;;15.50;8.53;;;;;;;6.60;100.00;98800.78;1466446;87;21382;-78
2024/01/04 05:16:55;;;;;;;12.70;7.53;;;;;;;6.59;100.00;98809.16;1470185;87;21493;-78
2024/01/04 05:19:21;;;;;;;11.00;6.93;;;;;;;6.60;100.00;98804.72;1474920;87;21391;-78
2024/01/04 05:21:47;;;;;;;13.63;7.13;;;;;;;6.59;100.00;98802.59;1472058;87;22445;-79
2024/01/04 05:24:13;;;;;;;13.90;7.30;;;;;;;6.60;100.00;98811.30;1479741;87;21501;-78
2024/01/04 05:26:39;;;;;;;11.13;7.00;;;;;;;6.58;100.00;98803.55;1476834;87;21523;-78
2024/01/04 05:29:05;;;;;;;15.00;8.70;;;;;;;6.57;100.00;98803.23;1477042;88;21272;-79
2024/01/04 05:31:31;;;;;;;15.27;8.37;;;;;;;6.57;100.00;98795.34;1467525;88;21609;-79
2024/01/04 05:33:58;;;;;;;16.10;9.03;;;;;;;6.55;100.00;98812.58;1471170;87;21360;-78
2024/01/04 05:36:24;;;;;;;21.90;10.13;;;;;;;6.54;100.00;98807.00;1471099;88;22291;-77
2024/01/04 05:38:50;;;;;;;26.93;13.90;;;;;;;6.55;100.00;98798.63;1476817;87;21382;-77
2024/01/04 05:41:18;;;;;;;25.10;13.27;;;;;;;6.54;100.00;98808.32;1472753;88;21346;-76
2024/01/04 05:43:44;;;;;;;17.43;9.10;;;;;;;6.56;100.00;98805.55;1477143;87;21338;-77
2024/01/04 05:46:10;;;;;;;18.77;11.83;;;;;;;6.56;100.00;98796.34;1475581;88;21330;-76
2024/01/04 05:48:36;;;;;;;16.30;9.40;;;;;;;6.58;100.00;98798.30;1473286;88;21382;-77
2024/01/04 05:51:03;;;;;;;17.60;8.67;;;;;;;6.58;100.00;98787.78;1479651;87;21927;-77
2024/01/04 05:53:29;;;;;;;16.77;9.13;;;;;;;6.61;100.00;98782.70;1474106;88;21855;-78
2024/01/04 05:55:55;;;;;;;14.60;8.53;;;;;;;6.62;100.00;98781.70;1473187;87;21485;-77
2024/01/04 05:58:21;;;;;;;15.17;7.67;;;;;;;6.62;100.00;98782.55;1476750;87;21456;-77
2024/01/04 06:00:48;;;;;;;16.73;9.57;;;;;;;6.63;100.00;98776.30;1472804;87;21286;-77
2024/01/04 06:03:14;;;;;;;14.30;7.67;;;;;;;6.65;100.00;98774.34;1479204;88;21471;-77
2024/01/04 06:05:40;;;;;;;13.90;7.53;;;;;;;6.64;100.00;98771.36;1477474;87;21309;-77
2024/01/04 06:08:07;;;;;;;12.23;7.17;;;;;;;6.63;100.00;98782.87;1467948;88;21331;-77
2024/01/04 06:10:34;;;;;;;17.40;9.23;;;;;;;6.63;100.00;98785.50;1472817;87;21398;-78
2024/01/04 06:13:00;;;;;;;15.70;8.57;;;;;;;6.64;100.00;98783.19;1467754;87;21368;-77
2024/01/04 06:15:26;;;;;;;18.23;9.17;;;;;;;6.65;100.00;98792.73;1471014;87;21405;-77
2024/01/04 06:17:53;;;;;;;19.93;8.77;;;;;;;6.62;100.00;98783.86;1469341;88;21353;-77
2024/01/04 06:20:19;;;;;;;14.33;8.53;;;;;;;6.64;100.00;98783.69;1478642;88;21331;-78
2024/01/04 06:22:45;;;;;;;14.33;7.27;;;;;;;6.62;100.00;98779.92;1472008;88;21360;-77
2024/01/04 06:25:12;;;;;;;10.00;6.73;;;;;;;6.63;100.00;98788.13;1470405;87;21398;-78
2024/01/04 06:27:40;;;;;;;12.57;8.00;;;;;;;6.63;100.00;98784.19;1477215;87;22439;-78
2024/01/04 06:30:08;;;;;;;15.30;7.73;;;;;;;6.64;100.00;98785.00;1468018;88;21354;-76
2024/01/04 06:32:34;;;;;;;16.73;7.47;;;;;;;6.63;100.00;98778.92;1462140;88;21442;-77
2024/01/04 06:35:00;;;;;;;13.77;7.50;;;;;;;6.64;100.00;98775.30;1474316;88;22313;-77
2024/01/04 06:37:28;;;;;;;19.97;7.90;;;;;;;6.64;100.00;98776.61;1473394;87;21949;-78
2024/01/04 06:39:54;;;;;;;12.17;7.80;;;;;;;6.64;100.00;98776.61;1460258;87;22046;-79
2024/01/04 06:42:20;;;;;;;12.80;6.93;;;;;;;6.63;100.00;98777.61;1479237;88;21508;-77
2024/01/04 06:44:47;;;;;;;15.17;7.07;;;;;;;6.64;100.00;98776.61;1473086;88;22411;-77
2024/01/04 06:47:14;;;;;;;11.57;7.33;;;;;;;6.64;100.00;98781.87;1468435;87;21427;-77
2024/01/04 06:49:41;;;;;;;10.87;6.80;;;;;;;6.65;100.00;98782.22;1468216;88;21419;-78
2024/01/04 06:52:08;;;;;;;17.70;8.47;;;;;;;6.64;100.00;98777.93;1476945;87;21390;-77
2024/01/04 06:54:34;;;;;;;16.20;8.43;;;;;;;6.64;100.00;98777.11;1469676;88;21382;-78
2024/01/04 06:57:02;;;;;;;14.00;9.17;;;;;;;6.63;100.00;98784.68;1474436;87;21376;-77
2024/01/04 06:59:28;;;;;;;16.40;10.10;;;;;;;6.64;100.00;98772.67;1471522;87;21404;-77
2024/01/04 07:01:55;;;;;;;14.10;7.43;;;;;;;6.65;100.00;98764.31;1469859;87;21435;-80
2024/01/04 07:04:21;;;;;;;18.43;8.73;;;;;;;6.64;100.00;98777.93;1475249;87;22382;-78
2024/01/04 07:06:47;;;;;;;14.60;8.40;;;;;;;6.65;100.00;98773.02;1471746;87;21493;-78
2024/01/04 07:09:13;;;;;;;12.93;8.03;;;;;;;6.66;100.00;98758.87;1473423;88;21589;-79
2024/01/04 07:11:39;;;;;;;15.00;7.97;;;;;;;6.65;100.00;98758.56;1477068;88;22123;-78
2024/01/04 07:14:05;;;;;;;18.20;7.70;;;;;;;6.66;100.00;98765.45;1470842;87;21470;-79
2024/01/04 07:16:32;;;;;;;11.70;7.00;;;;;;;6.67;100.00;98767.58;1477606;88;21596;-78
2024/01/04 07:18:58;;;;;;;13.13;6.93;;;;;;;6.68;100.00;98756.92;1463488;88;22321;-80
2024/01/04 07:21:24;;;;;;;20.57;9.23;;;;;;;6.67;100.00;98752.63;1475161;87;21338;-79
2024/01/04 07:23:52;;;;;;;19.50;8.87;;;;;;;6.66;100.00;98756.25;1467714;88;21411;-80
2024/01/04 07:26:18;;;;;;;17.10;8.50;;;;;;;6.66;100.00;98752.80;1472840;88;21360;-79
2024/01/04 07:28:44;;;;;;;17.47;9.17;;;;;;;6.69;100.00;98765.13;1475526;88;22375;-78
2024/01/04 07:31:10;;;;;;;19.30;9.40;;;;;;;6.69;100.00;98758.55;1470697;87;21546;-79
2024/01/04 07:33:37;;;;;;;14.37;8.97;;;;;;;6.70;100.00;98764.63;1475579;87;22433;-79
2024/01/04 07:36:03;;;;;;;19.77;13.57;;;;;;;6.71;100.00;98767.61;1478390;87;21388;-79
2024/01/04 07:38:29;;;;;;;19.67;10.93;;;;;;;6.71;100.00;98764.48;1476639;88;21412;-84
2024/01/04 07:40:55;;;;;;;18.43;9.07;;;;;;;6.73;100.00;98759.89;1463989;88;21464;-83
2024/01/04 07:43:21;;;;;;;15.67;9.13;;;;;;;6.80;100.00;98752.16;1467968;88;22388;-83
2024/01/04 07:45:49;;;;;;;18.90;8.77;;;;;;;6.87;100.00;98753.63;1474827;87;21382;-84
2024/01/04 07:48:15;;;;;;;11.20;7.67;;;;;;;6.91;100.00;98754.95;1474490;88;21898;-84
2024/01/04 07:50:41;;;;;;;21.87;11.60;;;;;;;6.99;100.00;98753.61;1466103;87;22262;-84
2024/01/04 07:53:07;;;;;;;18.40;10.10;;;;;;;7.07;100.00;98747.53;1460783;88;21530;-80
2024/01/04 07:55:33;;;;;;;16.93;9.80;;;;;;;7.11;100.00;98746.23;1464816;87;21427;-81
2024/01/04 07:57:59;;;;;;;15.43;8.10;;;;;;;7.06;100.00;98737.52;1471388;87;21427;-80
2024/01/04 08:00:26;;;;;;;21.07;11.17;;;;;;;7.06;100.00;98744.09;1469025;87;21405;-81
2024/01/04 08:02:52;;;;;;;15.30;9.03;;;;;;;7.08;100.00;98739.49;1472226;88;21441;-80
2024/01/04 08:05:19;;;;;;;20.70;10.00;;;;;;;7.09;100.00;98738.99;1470673;87;21420;-80
2024/01/04 08:07:45;;;;;;;16.27;9.53;;;;;;;7.13;100.00;98739.79;1472693;88;21611;-79
2024/01/04 08:10:13;;;;;;;20.67;9.07;;;;;;;7.16;100.00;98739.48;1474252;87;21413;-77
2024/01/04 08:12:45;;;;;;;18.67;8.73;;;;;;;7.23;100.00;98740.44;1471379;88;21346;-80
2024/01/04 08:15:11;;;;;;;19.23;9.95;;;;;;;7.30;100.00;98738.45;1467309;88;21643;-80
2024/01/04 08:17:37;;;;;;;18.40;8.63;;;;;;;7.35;100.00;98739.59;1469591;88;21574;-79
2024/01/04 08:20:05;;;;;;;22.47;10.60;;;;;;;7.39;100.00;98740.92;1467425;87;21392;-80
2024/01/04 08:22:31;;;;;;;19.93;9.43;;;;;;;7.48;100.00;98735.61;1473412;87;21404;-80
2024/01/04 08:24:57;;;;;;;26.30;8.57;;;;;;;7.56;100.00;98741.67;1468336;88;21472;-80
2024/01/04 08:27:23;;;;;;;14.10;7.07;;;;;;;7.61;100.00;98738.04;1475816;87;21591;-81
2024/01/04 08:29:50;;;;;;;18.37;9.27;;;;;;;7.65;100.00;98732.78;1474920;87;21384;-81
2024/01/04 08:32:17;;;;;;;21.43;10.03;;;;;;;7.72;100.00;98729.46;1473560;88;21434;-80
2024/01/04 08:34:44;;;;;;;22.10;10.00;;;;;;;7.76;100.00;98721.53;1468852;88;21294;-80
2024/01/04 08:37:11;;;;;;;12.03;6.73;;;;;;;7.84;100.00;98729.41;1466258;88;21419;-80
2024/01/04 08:39:37;;;;;;;30.53;9.73;;;;;;;7.91;100.00;98734.30;1475826;87;21375;-80
2024/01/04 08:42:04;;;;;;;26.53;10.40;;;;;;;7.97;100.00;98717.83;1465661;88;21389;-81
2024/01/04 08:44:30;;;;;;;23.10;8.40;;;;;;;8.08;100.00;98717.41;1465327;88;21405;-80
2024/01/04 08:46:56;;;;;;;16.70;8.63;;;;;;;8.17;100.00;98720.84;1475115;87;21419;-78
2024/01/04 08:49:22;;;;;;;18.03;8.93;;;;;;;8.29;100.00;98733.13;1461508;88;21375;-79
2024/01/04 08:51:48;;;;;;;30.80;12.60;;;;;;;8.38;100.00;98740.48;1478371;87;21346;-80
2024/01/04 08:54:15;;;;;;;16.60;7.97;;;;;;;8.45;100.00;98731.72;1475316;87;21608;-82
2024/01/04 08:56:41;;;;;;;13.20;6.20;;;;;;;8.56;100.00;98746.31;1474110;88;21353;-80
2024/01/04 08:59:08;;;;;;;13.40;6.07;;;;;;;8.67;100.00;98743.78;1474992;88;21517;-80
2024/01/04 09:01:35;;;;;;;12.00;6.27;;;;;;;8.75;100.00;98748.99;1467372;87;21464;-80
2024/01/04 09:04:02;;;;;;;15.20;6.63;;;;;;;8.82;100.00;98752.55;1462895;88;21375;-80
2024/01/04 09:06:29;;;;;;;13.40;6.00;;;;;;;8.91;100.00;98740.92;1466332;88;21516;-78
2024/01/04 09:08:55;;;;;;;14.20;6.93;;;;;;;8.95;100.00;98746.69;1471013;87;21903;-79
2024/01/04 09:11:22;;;;;;;14.03;6.33;;;;;;;8.98;100.00;98740.55;1465936;88;21339;-79
2024/01/04 09:13:48;;;;;;;8.47;5.37;;;;;;;9.03;100.00;98736.89;1472996;87;21390;-78
2024/01/04 09:16:14;;;;;;;7.47;4.57;;;;;;;9.07;100.00;98744.44;1468329;88;22343;-78
2024/01/04 09:18:40;;;;;;;11.73;5.03;;;;;;;9.08;100.00;98747.39;1471984;88;22031;-79
2024/01/04 09:21:08;;;;;;;16.73;5.80;;;;;;;9.11;100.00;98746.53;1465915;88;21434;-78
2024/01/04 09:23:34;;;;;;;13.10;5.70;;;;;;;9.16;100.00;98748.14;1475328;88;21463;-78
2024/01/04 09:26:08;;;;;;;13.07;6.10;;;;;;;9.20;100.00;98744.13;1463813;88;22255;-78
2024/01/04 09:28:35;;;;;;;12.00;5.87;;;;;;;9.28;100.00;98743.74;1468473;87;21508;-78
2024/01/04 09:31:02;;;;;;;10.30;5.00;;;;;;;9.37;100.00;98742.15;1476860;87;21330;-81
2024/01/04 09:33:28;;;;;;;11.97;5.30;;;;;;;9.43;100.00;98736.64;1477519;88;22011;-78
2024/01/04 09:35:54;;;;;;;10.20;5.70;;;;;;;9.43;100.00;98738.78;1473607;88;22329;-79
2024/01/04 09:38:21;;;;;;;10.23;4.33;;;;;;;9.47;100.00;98735.30;1472501;88;23033;-79
2024/01/04 09:40:49;;;;;;;12.47;5.00;;;;;;;9.48;100.00;98739.06;1472094;87;21852;-79
2024/01/04 09:43:16;;;;;;;7.93;4.43;;;;;;;9.46;100.00;98746.34;1472805;87;22479;-78
2024/01/04 09:45:44;;;;;;;8.50;4.70;;;;;;;9.49;100.00;98734.12;1472378;88;21367;-79
2024/01/04 09:48:12;;;;;;;10.77;5.23;;;;;;;9.64;100.00;98742.04;1395292;88;21317;-78
2024/01/04 09:50:40;;;;;;;11.33;4.67;;;;;;;10.09;100.00;98747.27;1546102;88;21295;-79
2024/01/04 09:53:07;;;;;;;8.90;4.80;;;;;;;10.78;100.00;98751.58;1402434;87;22234;-77
2024/01/04 09:55:35;;;;;;;10.67;5.67;;;;;;;11.34;100.00;98760.60;1558469;87;21569;-80
2024/01/04 09:58:03;;;;;;;8.63;4.67;;;;;;;11.75;100.00;98761.45;1389180;89;21272;-78
2024/01/04 10:00:29;;;;;;;10.17;4.67;;;;;;;12.18;100.00;98765.77;1402058;87;21250;-79
2024/01/04 10:02:59;;;;;;;9.97;4.80;;;;;;;12.48;100.00;98766.77;1554121;87;21272;-79
2024/01/04 10:05:26;;;;;;;7.63;4.43;;;;;;;12.72;100.00;98758.77;1394358;87;21251;-79
2024/01/04 10:08:16;;;;;;;9.13;3.50;;;;;;;12.86;100.00;98762.56;1545470;88;21235;-78
2024/01/04 10:10:44;;;;;;;6.27;4.33;;;;;;;12.98;100.00;98762.78;1542705;88;21258;-80
2024/01/04 10:13:11;;;;;;;8.70;4.37;;;;;;;12.98;100.00;98762.78;1395960;87;21607;-79
2024/01/04 10:15:37;;;;;;;12.23;5.30;;;;;;;13.01;100.00;98762.37;1397773;88;21521;-79
2024/01/04 10:18:08;;;;;;;10.17;4.40;;;;;;;13.22;100.00;98767.17;1398103;88;21369;-78
2024/01/04 10:20:34;;;;;;;;;;;;;;;13.32;100.00;98759.61;1559400;87;21185;-79
2024/01/04 10:23:00;;;;;;;6.73;3.43;;;;;;;13.10;100.00;98757.16;1397369;87;20289;-80
2024/01/04 10:25:26;;;;;;;12.73;4.57;;;;;;;13.09;100.00;98752.88;1403165;88;21661;-80
2024/01/04 10:27:57;;;;;;;9.57;5.73;;;;;;;13.16;100.00;98744.08;1391326;89;21266;-79
2024/01/04 10:30:23;;;;;;;;;;;;;;;13.35;100.00;98743.77;1399171;87;21331;-79
2024/01/04 10:32:50;;;;;;;7.17;4.03;;;;;;;13.38;100.00;98750.84;1392017;89;20833;-79
2024/01/04 10:35:30;;;;;;;9.47;3.23;;;;;;;13.45;100.00;98749.50;1403154;88;21354;-78
2024/01/04 10:38:00;;;;;;;7.40;3.57;;;;;;;13.30;100.00;98748.40;1558679;87;21177;-79
2024/01/04 10:40:26;;;;;;;8.03;4.33;;;;;;;13.10;100.00;98741.22;1395457;87;22124;-79
2024/01/04 10:42:53;;;;;;;8.70;4.30;;;;;;;13.06;100.00;98745.31;1397121;88;21383;-79
2024/01/04 10:45:32;;;;;;;10.13;5.50;;;;;;;13.16;100.00;98728.15;1397510;88;21302;-79
2024/01/04 10:47:58;;;;;;;8.00;3.37;;;;;;;13.18;100.00;98724.78;1556994;88;22242;-79
2024/01/04 10:50:25;;;;;;;6.97;3.43;;;;;;;13.31;100.00;98722.94;1404235;87;21354;-79
2024/01/04 10:52:59;;;;;;;5.33;3.00;;;;;;;13.38;100.00;98730.92;1397049;88;21413;-79
2024/01/04 10:55:23;;;;;;;6.60;2.80;;;;;;;13.29;100.00;98721.02;1395692;91;21330;-79
2024/01/04 10:57:52;;;;;;;4.47;2.93;;;;;;;13.36;100.00;98727.64;1395660;88;21258;-78
2024/01/04 11:00:19;;;;;;;4.70;2.10;;;;;;;13.49;100.00;98728.95;1551554;88;21441;-79
2024/01/04 11:02:47;;;;;;;5.77;2.93;;;;;;;13.61;100.00;98733.61;1553172;88;21406;-78
2024/01/04 11:05:15;;;;;;;7.43;3.83;;;;;;;13.76;100.00;98730.20;1395742;87;21324;-80
2024/01/04 11:07:43;;;;;;;3.87;2.33;;;;;;;13.71;100.00;98721.52;1388863;89;21272;-78
2024/01/04 11:10:12;;;;;;;3.20;1.90;;;;;;;13.78;100.00;98726.80;1395955;88;21370;-79
2024/01/04 11:12:40;;;;;;;8.33;2.93;;;;;;;13.66;100.00;98726.64;1389051;88;21372;-78
2024/01/04 11:15:09;;;;;;;6.23;2.40;;;;;;;13.39;100.00;98721.09;1395052;87;21200;-77
2024/01/04 11:17:53;;;;;;;6.10;3.10;;;;;;;13.04;100.00;98714.16;1387586;89;22242;-79
2024/01/04 11:20:30;;;;;;;9.07;2.77;;;;;;;12.71;100.00;98714.66;1557169;87;22169;-78
2024/01/04 11:23:26;;;;;;;11.10;3.77;;;;;;;12.46;100.00;98715.25;1394359;87;21317;-79